sensor_id;sensor_type;location;lat;lon;timestamp;temperature;humidity
43671;DHT22;29267;50.906;7.248;2023-06-14T00:01:17;17.40;75.80
43671;DHT22;29267;50.906;7.248;2023-06-14T00:03:45;17.30;76.30
43671;DHT22;29267;50.906;7.248;2023-06-14T00:06:13;17.10;77.20
43671;DHT22;29267;50.906;7.248;2023-06-14T00:08:38;17.00;77.60
43671;DHT22;29267;50.906;7.248;2023-06-14T00:11:05;16.90;77.70
43671;DHT22;29267;50.906;7.248;2023-06-14T00:13:31;16.80;77.70
43671;DHT22;29267;50.906;7.248;2023-06-14T00:15:56;16.80;77.30
43671;DHT22;29267;50.906;7.248;2023-06-14T00:18:22;16.70;78.40
43671;DHT22;29267;50.906;7.248;2023-06-14T00:20:50;16.70;78.40
43671;DHT22;29267;50.906;7.248;2023-06-14T00:23:16;16.70;77.50
43671;DHT22;29267;50.906;7.248;2023-06-14T00:25:42;16.70;77.70
43671;DHT22;29267;50.906;7.248;2023-06-14T00:28:07;16.70;78.00
43671;DHT22;29267;50.906;7.248;2023-06-14T00:30:33;16.70;76.50
43671;DHT22;29267;50.906;7.248;2023-06-14T00:32:59;16.70;77.00
43671;DHT22;29267;50.906;7.248;2023-06-14T00:35:24;16.70;76.60
43671;DHT22;29267;50.906;7.248;2023-06-14T00:37:50;16.70;76.60
43671;DHT22;29267;50.906;7.248;2023-06-14T00:40:16;16.70;75.80
43671;DHT22;29267;50.906;7.248;2023-06-14T00:42:42;16.80;75.00
43671;DHT22;29267;50.906;7.248;2023-06-14T00:45:08;16.80;75.00
43671;DHT22;29267;50.906;7.248;2023-06-14T00:47:35;16.90;74.50
43671;DHT22;29267;50.906;7.248;2023-06-14T00:50:03;16.90;74.60
43671;DHT22;29267;50.906;7.248;2023-06-14T00:52:31;16.90;73.90
43671;DHT22;29267;50.906;7.248;2023-06-14T00:54:58;17.00;74.20
43671;DHT22;29267;50.906;7.248;2023-06-14T00:57:23;17.00;73.90
43671;DHT22;29267;50.906;7.248;2023-06-14T00:59:50;16.90;74.00
43671;DHT22;29267;50.906;7.248;2023-06-14T01:02:16;16.90;73.60
43671;DHT22;29267;50.906;7.248;2023-06-14T01:04:44;16.90;73.40
43671;DHT22;29267;50.906;7.248;2023-06-14T01:07:21;16.90;73.40
43671;DHT22;29267;50.906;7.248;2023-06-14T01:15:36;16.80;73.90
43671;DHT22;29267;50.906;7.248;2023-06-14T01:18:04;16.80;73.90
43671;DHT22;29267;50.906;7.248;2023-06-14T01:20:32;16.80;73.80
43671;DHT22;29267;50.906;7.248;2023-06-14T01:22:58;16.80;73.50
43671;DHT22;29267;50.906;7.248;2023-06-14T01:25:24;16.80;72.70
43671;DHT22;29267;50.906;7.248;2023-06-14T01:27:58;16.90;72.70
43671;DHT22;29267;50.906;7.248;2023-06-14T01:30:25;16.90;72.50
43671;DHT22;29267;50.906;7.248;2023-06-14T01:32:52;16.90;72.40
43671;DHT22;29267;50.906;7.248;2023-06-14T01:35:18;16.90;71.80
43671;DHT22;29267;50.906;7.248;2023-06-14T01:37:47;17.00;71.90
43671;DHT22;29267;50.906;7.248;2023-06-14T01:40:15;16.90;71.80
43671;DHT22;29267;50.906;7.248;2023-06-14T01:42:41;17.00;71.60
43671;DHT22;29267;50.906;7.248;2023-06-14T01:45:09;16.90;71.80
43671;DHT22;29267;50.906;7.248;2023-06-14T01:47:35;16.90;71.60
43671;DHT22;29267;50.906;7.248;2023-06-14T01:50:05;16.90;71.50
43671;DHT22;29267;50.906;7.248;2023-06-14T01:52:31;16.90;71.50
43671;DHT22;29267;50.906;7.248;2023-06-14T01:54:56;16.90;71.20
43671;DHT22;29267;50.906;7.248;2023-06-14T01:57:24;16.90;71.50
43671;DHT22;29267;50.906;7.248;2023-06-14T01:59:50;16.80;71.80
43671;DHT22;29267;50.906;7.248;2023-06-14T02:02:16;16.70;71.40
43671;DHT22;29267;50.906;7.248;2023-06-14T02:04:42;16.70;71.40
43671;DHT22;29267;50.906;7.248;2023-06-14T02:07:07;16.70;71.60
43671;DHT22;29267;50.906;7.248;2023-06-14T02:09:34;16.70;71.50
43671;DHT22;29267;50.906;7.248;2023-06-14T02:12:00;16.70;71.40
43671;DHT22;29267;50.906;7.248;2023-06-14T02:14:26;16.70;71.70
43671;DHT22;29267;50.906;7.248;2023-06-14T02:16:52;16.60;71.70
43671;DHT22;29267;50.906;7.248;2023-06-14T02:19:19;16.60;71.70
43671;DHT22;29267;50.906;7.248;2023-06-14T02:21:46;16.60;71.80
43671;DHT22;29267;50.906;7.248;2023-06-14T02:24:12;16.60;71.30
43671;DHT22;29267;50.906;7.248;2023-06-14T02:26:37;16.50;71.60
43671;DHT22;29267;50.906;7.248;2023-06-14T02:29:06;16.50;72.00
43671;DHT22;29267;50.906;7.248;2023-06-14T02:31:35;16.50;71.90
43671;DHT22;29267;50.906;7.248;2023-06-14T02:34:01;16.50;72.20
43671;DHT22;29267;50.906;7.248;2023-06-14T02:36:26;16.40;72.50
43671;DHT22;29267;50.906;7.248;2023-06-14T02:38:52;16.40;72.50
43671;DHT22;29267;50.906;7.248;2023-06-14T02:41:19;16.30;72.10
43671;DHT22;29267;50.906;7.248;2023-06-14T02:43:45;16.30;72.30
43671;DHT22;29267;50.906;7.248;2023-06-14T02:46:10;16.30;72.50
43671;DHT22;29267;50.906;7.248;2023-06-14T02:48:36;16.20;72.70
43671;DHT22;29267;50.906;7.248;2023-06-14T02:51:02;16.20;72.60
43671;DHT22;29267;50.906;7.248;2023-06-14T02:53:27;16.10;72.70
43671;DHT22;29267;50.906;7.248;2023-06-14T02:55:53;16.10;72.70
43671;DHT22;29267;50.906;7.248;2023-06-14T02:58:20;16.20;72.20
43671;DHT22;29267;50.906;7.248;2023-06-14T03:00:46;16.20;72.00
43671;DHT22;29267;50.906;7.248;2023-06-14T03:03:12;16.30;72.10
43671;DHT22;29267;50.906;7.248;2023-06-14T03:05:46;16.30;72.10
43671;DHT22;29267;50.906;7.248;2023-06-14T03:08:13;16.20;72.80
43671;DHT22;29267;50.906;7.248;2023-06-14T03:10:47;16.20;72.30
43671;DHT22;29267;50.906;7.248;2023-06-14T03:13:14;16.20;72.30
43671;DHT22;29267;50.906;7.248;2023-06-14T03:15:41;16.20;72.30
43671;DHT22;29267;50.906;7.248;2023-06-14T03:18:10;16.20;72.60
43671;DHT22;29267;50.906;7.248;2023-06-14T03:20:37;16.20;72.50
43671;DHT22;29267;50.906;7.248;2023-06-14T03:23:03;16.20;72.50
43671;DHT22;29267;50.906;7.248;2023-06-14T03:25:30;16.20;72.70
43671;DHT22;29267;50.906;7.248;2023-06-14T03:27:57;16.20;72.60
43671;DHT22;29267;50.906;7.248;2023-06-14T03:30:22;16.20;72.60
43671;DHT22;29267;50.906;7.248;2023-06-14T03:32:48;16.20;72.50
43671;DHT22;29267;50.906;7.248;2023-06-14T03:35:14;16.20;72.80
43671;DHT22;29267;50.906;7.248;2023-06-14T03:37:44;16.20;72.90
43671;DHT22;29267;50.906;7.248;2023-06-14T03:40:10;16.20;73.00
43671;DHT22;29267;50.906;7.248;2023-06-14T03:42:36;16.20;72.50
43671;DHT22;29267;50.906;7.248;2023-06-14T03:45:02;16.20;72.50
43671;DHT22;29267;50.906;7.248;2023-06-14T03:47:28;16.30;72.80
43671;DHT22;29267;50.906;7.248;2023-06-14T03:49:53;16.30;72.80
43671;DHT22;29267;50.906;7.248;2023-06-14T03:52:19;16.30;73.10
43671;DHT22;29267;50.906;7.248;2023-06-14T03:54:44;16.30;73.20
43671;DHT22;29267;50.906;7.248;2023-06-14T03:57:10;16.20;73.10
43671;DHT22;29267;50.906;7.248;2023-06-14T03:59:36;16.20;73.40
43671;DHT22;29267;50.906;7.248;2023-06-14T04:02:02;16.20;73.60
43671;DHT22;29267;50.906;7.248;2023-06-14T04:04:28;16.20;74.10
43671;DHT22;29267;50.906;7.248;2023-06-14T04:06:55;16.20;74.00
43671;DHT22;29267;50.906;7.248;2023-06-14T04:09:23;16.20;74.40
43671;DHT22;29267;50.906;7.248;2023-06-14T04:11:53;16.20;74.20
43671;DHT22;29267;50.906;7.248;2023-06-14T04:14:22;16.20;74.50
43671;DHT22;29267;50.906;7.248;2023-06-14T04:16:48;16.30;74.20
43671;DHT22;29267;50.906;7.248;2023-06-14T04:19:15;16.30;74.40
43671;DHT22;29267;50.906;7.248;2023-06-14T04:21:41;16.30;74.30
43671;DHT22;29267;50.906;7.248;2023-06-14T04:24:07;16.30;74.70
43671;DHT22;29267;50.906;7.248;2023-06-14T04:26:38;16.30;75.00
43671;DHT22;29267;50.906;7.248;2023-06-14T04:29:05;16.40;74.80
43671;DHT22;29267;50.906;7.248;2023-06-14T04:31:31;16.50;74.20
43671;DHT22;29267;50.906;7.248;2023-06-14T04:34:00;16.80;74.60
43671;DHT22;29267;50.906;7.248;2023-06-14T04:36:25;17.70;72.10
43671;DHT22;29267;50.906;7.248;2023-06-14T04:38:53;18.90;69.20
43671;DHT22;29267;50.906;7.248;2023-06-14T04:41:20;20.30;66.80
43671;DHT22;29267;50.906;7.248;2023-06-14T04:43:48;21.70;62.80
43671;DHT22;29267;50.906;7.248;2023-06-14T04:46:15;22.70;61.00
43671;DHT22;29267;50.906;7.248;2023-06-14T04:48:41;23.10;60.50
43671;DHT22;29267;50.906;7.248;2023-06-14T04:51:08;24.40;57.70
43671;DHT22;29267;50.906;7.248;2023-06-14T04:53:35;24.90;56.40
43671;DHT22;29267;50.906;7.248;2023-06-14T04:56:01;25.60;54.80
43671;DHT22;29267;50.906;7.248;2023-06-14T04:58:27;26.40;54.10
43671;DHT22;29267;50.906;7.248;2023-06-14T05:00:54;26.30;53.30
43671;DHT22;29267;50.906;7.248;2023-06-14T05:03:21;25.90;55.30
43671;DHT22;29267;50.906;7.248;2023-06-14T05:05:47;26.40;54.70
43671;DHT22;29267;50.906;7.248;2023-06-14T05:08:13;26.90;53.80
43671;DHT22;29267;50.906;7.248;2023-06-14T05:10:39;27.10;53.00
43671;DHT22;29267;50.906;7.248;2023-06-14T05:13:05;27.30;53.60
43671;DHT22;29267;50.906;7.248;2023-06-14T05:15:30;28.80;50.90
43671;DHT22;29267;50.906;7.248;2023-06-14T05:17:56;29.10;50.60
43671;DHT22;29267;50.906;7.248;2023-06-14T05:20:23;28.80;51.30
43671;DHT22;29267;50.906;7.248;2023-06-14T05:22:53;28.70;51.40
43671;DHT22;29267;50.906;7.248;2023-06-14T05:25:22;28.60;52.20
43671;DHT22;29267;50.906;7.248;2023-06-14T05:27:48;29.90;50.60
43671;DHT22;29267;50.906;7.248;2023-06-14T05:30:15;29.50;50.30
43671;DHT22;29267;50.906;7.248;2023-06-14T05:32:41;29.30;50.80
43671;DHT22;29267;50.906;7.248;2023-06-14T05:35:07;29.50;50.40
43671;DHT22;29267;50.906;7.248;2023-06-14T05:37:32;29.40;50.00
43671;DHT22;29267;50.906;7.248;2023-06-14T05:39:58;29.30;50.50
43671;DHT22;29267;50.906;7.248;2023-06-14T05:42:24;29.40;50.30
43671;DHT22;29267;50.906;7.248;2023-06-14T05:44:49;29.30;50.30
43671;DHT22;29267;50.906;7.248;2023-06-14T05:47:16;30.00;49.90
43671;DHT22;29267;50.906;7.248;2023-06-14T05:49:41;30.60;49.00
43671;DHT22;29267;50.906;7.248;2023-06-14T05:52:07;30.60;49.00
43671;DHT22;29267;50.906;7.248;2023-06-14T05:54:33;30.80;48.80
43671;DHT22;29267;50.906;7.248;2023-06-14T05:56:59;31.00;48.90
43671;DHT22;29267;50.906;7.248;2023-06-14T05:59:30;31.00;48.00
43671;DHT22;29267;50.906;7.248;2023-06-14T06:01:55;31.10;47.90
43671;DHT22;29267;50.906;7.248;2023-06-14T06:04:21;31.20;48.50
43671;DHT22;29267;50.906;7.248;2023-06-14T06:06:46;31.70;48.20
43671;DHT22;29267;50.906;7.248;2023-06-14T06:09:13;32.00;47.50
43671;DHT22;29267;50.906;7.248;2023-06-14T06:11:40;32.30;48.10
43671;DHT22;29267;50.906;7.248;2023-06-14T06:14:06;31.90;47.30
43671;DHT22;29267;50.906;7.248;2023-06-14T06:16:31;32.50;47.60
43671;DHT22;29267;50.906;7.248;2023-06-14T06:18:57;32.00;47.30
43671;DHT22;29267;50.906;7.248;2023-06-14T06:21:23;32.10;46.30
43671;DHT22;29267;50.906;7.248;2023-06-14T06:23:48;32.10;48.40
43671;DHT22;29267;50.906;7.248;2023-06-14T06:26:14;31.60;46.60
43671;DHT22;29267;50.906;7.248;2023-06-14T06:28:40;31.30;47.60
43671;DHT22;29267;50.906;7.248;2023-06-14T06:31:05;31.30;47.60
43671;DHT22;29267;50.906;7.248;2023-06-14T06:33:31;32.30;45.20
43671;DHT22;29267;50.906;7.248;2023-06-14T06:35:56;32.40;45.70
43671;DHT22;29267;50.906;7.248;2023-06-14T06:38:22;32.20;46.10
43671;DHT22;29267;50.906;7.248;2023-06-14T06:40:47;32.40;45.90
43671;DHT22;29267;50.906;7.248;2023-06-14T06:43:13;33.40;45.20
43671;DHT22;29267;50.906;7.248;2023-06-14T06:45:39;32.90;44.60
43671;DHT22;29267;50.906;7.248;2023-06-14T06:48:05;32.60;46.40
43671;DHT22;29267;50.906;7.248;2023-06-14T06:50:31;32.70;46.90
43671;DHT22;29267;50.906;7.248;2023-06-14T06:52:57;32.20;47.20
43671;DHT22;29267;50.906;7.248;2023-06-14T06:55:23;32.70;45.60
43671;DHT22;29267;50.906;7.248;2023-06-14T06:57:48;33.50;45.00
43671;DHT22;29267;50.906;7.248;2023-06-14T07:00:15;33.00;44.60
43671;DHT22;29267;50.906;7.248;2023-06-14T07:02:41;33.00;44.20
43671;DHT22;29267;50.906;7.248;2023-06-14T07:05:07;32.80;44.90
43671;DHT22;29267;50.906;7.248;2023-06-14T07:07:34;33.00;44.80
43671;DHT22;29267;50.906;7.248;2023-06-14T07:09:59;32.30;45.10
43671;DHT22;29267;50.906;7.248;2023-06-14T07:12:30;32.70;45.20
43671;DHT22;29267;50.906;7.248;2023-06-14T07:14:57;32.50;45.00
43671;DHT22;29267;50.906;7.248;2023-06-14T07:17:23;33.40;45.50
43671;DHT22;29267;50.906;7.248;2023-06-14T07:19:48;33.60;44.40
43671;DHT22;29267;50.906;7.248;2023-06-14T07:22:14;34.30;44.40
43671;DHT22;29267;50.906;7.248;2023-06-14T07:24:39;34.60;42.50
43671;DHT22;29267;50.906;7.248;2023-06-14T07:27:06;34.90;42.90
43671;DHT22;29267;50.906;7.248;2023-06-14T07:29:31;34.60;43.00
43671;DHT22;29267;50.906;7.248;2023-06-14T07:31:57;34.90;43.00
43671;DHT22;29267;50.906;7.248;2023-06-14T07:34:22;33.30;43.00
43671;DHT22;29267;50.906;7.248;2023-06-14T07:36:48;33.50;42.20
43671;DHT22;29267;50.906;7.248;2023-06-14T07:39:13;33.70;43.00
43671;DHT22;29267;50.906;7.248;2023-06-14T07:41:39;33.00;43.30
43671;DHT22;29267;50.906;7.248;2023-06-14T07:44:05;32.90;43.50
43671;DHT22;29267;50.906;7.248;2023-06-14T07:46:31;33.30;42.30
43671;DHT22;29267;50.906;7.248;2023-06-14T07:48:56;33.00;42.80
43671;DHT22;29267;50.906;7.248;2023-06-14T07:51:22;32.60;43.10
43671;DHT22;29267;50.906;7.248;2023-06-14T07:53:49;32.80;42.40
43671;DHT22;29267;50.906;7.248;2023-06-14T07:56:15;33.70;42.50
43671;DHT22;29267;50.906;7.248;2023-06-14T07:58:40;33.60;41.80
43671;DHT22;29267;50.906;7.248;2023-06-14T08:01:06;33.90;42.70
43671;DHT22;29267;50.906;7.248;2023-06-14T08:03:33;33.80;41.60
43671;DHT22;29267;50.906;7.248;2023-06-14T08:06:00;34.10;41.50
43671;DHT22;29267;50.906;7.248;2023-06-14T08:08:26;34.00;41.70
43671;DHT22;29267;50.906;7.248;2023-06-14T08:10:52;34.40;42.20
43671;DHT22;29267;50.906;7.248;2023-06-14T08:13:17;33.20;42.70
43671;DHT22;29267;50.906;7.248;2023-06-14T08:15:43;33.40;41.90
43671;DHT22;29267;50.906;7.248;2023-06-14T08:18:09;33.40;42.10
43671;DHT22;29267;50.906;7.248;2023-06-14T08:20:35;33.30;41.10
43671;DHT22;29267;50.906;7.248;2023-06-14T08:23:02;32.80;41.10
43671;DHT22;29267;50.906;7.248;2023-06-14T08:25:27;32.60;42.40
43671;DHT22;29267;50.906;7.248;2023-06-14T08:27:53;32.20;42.60
43671;DHT22;29267;50.906;7.248;2023-06-14T08:30:18;32.10;43.00
43671;DHT22;29267;50.906;7.248;2023-06-14T08:32:44;32.50;41.70
43671;DHT22;29267;50.906;7.248;2023-06-14T08:35:10;32.10;41.30
43671;DHT22;29267;50.906;7.248;2023-06-14T08:37:41;32.30;42.70
43671;DHT22;29267;50.906;7.248;2023-06-14T08:40:20;32.80;40.90
43671;DHT22;29267;50.906;7.248;2023-06-14T08:42:54;33.20;41.00
43671;DHT22;29267;50.906;7.248;2023-06-14T08:45:21;32.30;42.10
43671;DHT22;29267;50.906;7.248;2023-06-14T08:47:47;32.10;43.10
43671;DHT22;29267;50.906;7.248;2023-06-14T08:50:20;32.60;41.60
43671;DHT22;29267;50.906;7.248;2023-06-14T08:52:48;33.00;42.20
43671;DHT22;29267;50.906;7.248;2023-06-14T08:55:16;32.90;41.20
43671;DHT22;29267;50.906;7.248;2023-06-14T08:57:43;33.20;41.50
43671;DHT22;29267;50.906;7.248;2023-06-14T09:00:11;33.50;42.10
43671;DHT22;29267;50.906;7.248;2023-06-14T09:02:39;32.80;41.00
43671;DHT22;29267;50.906;7.248;2023-06-14T09:05:09;33.60;41.20
43671;DHT22;29267;50.906;7.248;2023-06-14T09:07:34;33.20;42.60
43671;DHT22;29267;50.906;7.248;2023-06-14T09:10:09;33.60;41.40
43671;DHT22;29267;50.906;7.248;2023-06-14T09:12:36;33.40;41.40
43671;DHT22;29267;50.906;7.248;2023-06-14T09:15:02;33.00;41.80
43671;DHT22;29267;50.906;7.248;2023-06-14T09:17:32;33.40;42.10
43671;DHT22;29267;50.906;7.248;2023-06-14T09:19:59;32.50;42.00
43671;DHT22;29267;50.906;7.248;2023-06-14T09:22:24;32.40;42.60
43671;DHT22;29267;50.906;7.248;2023-06-14T09:24:50;33.10;43.00
43671;DHT22;29267;50.906;7.248;2023-06-14T09:27:16;33.50;41.70
43671;DHT22;29267;50.906;7.248;2023-06-14T09:29:41;32.70;42.10
43671;DHT22;29267;50.906;7.248;2023-06-14T09:32:07;32.80;42.60
43671;DHT22;29267;50.906;7.248;2023-06-14T09:34:34;32.10;42.60
43671;DHT22;29267;50.906;7.248;2023-06-14T09:37:01;32.40;43.30
43671;DHT22;29267;50.906;7.248;2023-06-14T09:39:26;32.60;43.10
43671;DHT22;29267;50.906;7.248;2023-06-14T09:41:52;32.60;43.00
43671;DHT22;29267;50.906;7.248;2023-06-14T09:44:18;32.50;44.00
43671;DHT22;29267;50.906;7.248;2023-06-14T09:46:45;33.40;41.90
43671;DHT22;29267;50.906;7.248;2023-06-14T09:49:11;32.90;42.30
43671;DHT22;29267;50.906;7.248;2023-06-14T09:51:43;32.50;42.40
43671;DHT22;29267;50.906;7.248;2023-06-14T09:54:15;31.90;43.00
43671;DHT22;29267;50.906;7.248;2023-06-14T09:56:42;32.50;43.70
43671;DHT22;29267;50.906;7.248;2023-06-14T09:59:10;32.50;43.80
43671;DHT22;29267;50.906;7.248;2023-06-14T10:01:42;31.50;43.80
43671;DHT22;29267;50.906;7.248;2023-06-14T10:04:09;31.70;43.70
43671;DHT22;29267;50.906;7.248;2023-06-14T10:06:43;31.30;43.60
43671;DHT22;29267;50.906;7.248;2023-06-14T10:09:11;31.50;43.50
43671;DHT22;29267;50.906;7.248;2023-06-14T10:11:38;31.30;43.40
43671;DHT22;29267;50.906;7.248;2023-06-14T10:14:11;31.10;44.40
43671;DHT22;29267;50.906;7.248;2023-06-14T10:17:16;30.80;44.40
43671;DHT22;29267;50.906;7.248;2023-06-14T10:22:32;29.60;46.60
43671;DHT22;29267;50.906;7.248;2023-06-14T10:24:59;29.10;47.70
43671;DHT22;29267;50.906;7.248;2023-06-14T10:27:25;28.80;47.20
43671;DHT22;29267;50.906;7.248;2023-06-14T10:32:20;28.40;46.90
43671;DHT22;29267;50.906;7.248;2023-06-14T10:34:57;28.50;47.90
43671;DHT22;29267;50.906;7.248;2023-06-14T10:37:23;28.60;47.80
43671;DHT22;29267;50.906;7.248;2023-06-14T10:39:50;28.60;48.60
43671;DHT22;29267;50.906;7.248;2023-06-14T10:42:16;28.70;47.50
43671;DHT22;29267;50.906;7.248;2023-06-14T10:44:54;28.50;47.10
43671;DHT22;29267;50.906;7.248;2023-06-14T10:47:32;28.10;48.10
43671;DHT22;29267;50.906;7.248;2023-06-14T10:50:10;27.80;47.90
43671;DHT22;29267;50.906;7.248;2023-06-14T10:52:41;27.80;49.50
43671;DHT22;29267;50.906;7.248;2023-06-14T10:55:17;27.90;48.00
43671;DHT22;29267;50.906;7.248;2023-06-14T10:57:51;27.70;49.10
43671;DHT22;29267;50.906;7.248;2023-06-14T11:00:22;28.00;50.80
43671;DHT22;29267;50.906;7.248;2023-06-14T11:05:52;28.00;49.30
43671;DHT22;29267;50.906;7.248;2023-06-14T11:10:58;28.30;50.20
43671;DHT22;29267;50.906;7.248;2023-06-14T11:13:25;27.70;49.10
43671;DHT22;29267;50.906;7.248;2023-06-14T11:15:51;27.60;49.80
43671;DHT22;29267;50.906;7.248;2023-06-14T11:18:19;27.70;51.30
43671;DHT22;29267;50.906;7.248;2023-06-14T11:20:49;27.50;49.90
43671;DHT22;29267;50.906;7.248;2023-06-14T11:23:15;27.80;51.20
43671;DHT22;29267;50.906;7.248;2023-06-14T11:25:41;28.10;49.40
43671;DHT22;29267;50.906;7.248;2023-06-14T11:28:07;27.90;50.60
43671;DHT22;29267;50.906;7.248;2023-06-14T11:30:32;27.60;50.30
43671;DHT22;29267;50.906;7.248;2023-06-14T11:32:58;26.90;52.20
43671;DHT22;29267;50.906;7.248;2023-06-14T11:35:25;26.40;51.10
43671;DHT22;29267;50.906;7.248;2023-06-14T11:37:55;26.10;53.30
43671;DHT22;29267;50.906;7.248;2023-06-14T11:40:24;25.90;52.20
43671;DHT22;29267;50.906;7.248;2023-06-14T11:42:49;26.10;53.60
43671;DHT22;29267;50.906;7.248;2023-06-14T11:45:15;26.10;53.40
43671;DHT22;29267;50.906;7.248;2023-06-14T11:47:41;26.20;52.70
43671;DHT22;29267;50.906;7.248;2023-06-14T11:50:08;26.10;52.60
43671;DHT22;29267;50.906;7.248;2023-06-14T11:52:35;26.10;52.80
43671;DHT22;29267;50.906;7.248;2023-06-14T11:55:03;26.30;53.10
43671;DHT22;29267;50.906;7.248;2023-06-14T11:57:35;26.40;52.50
43671;DHT22;29267;50.906;7.248;2023-06-14T12:00:06;26.20;51.30
43671;DHT22;29267;50.906;7.248;2023-06-14T12:02:33;26.00;51.60
43671;DHT22;29267;50.906;7.248;2023-06-14T12:05:04;25.70;52.10
43671;DHT22;29267;50.906;7.248;2023-06-14T12:07:32;25.50;51.20
43671;DHT22;29267;50.906;7.248;2023-06-14T12:12:24;25.70;52.90
43671;DHT22;29267;50.906;7.248;2023-06-14T12:14:53;25.70;51.60
43671;DHT22;29267;50.906;7.248;2023-06-14T12:17:19;25.60;52.50
43671;DHT22;29267;50.906;7.248;2023-06-14T12:19:46;25.70;52.10
43671;DHT22;29267;50.906;7.248;2023-06-14T12:22:13;25.60;52.40
43671;DHT22;29267;50.906;7.248;2023-06-14T12:24:39;25.40;52.90
43671;DHT22;29267;50.906;7.248;2023-06-14T12:27:05;25.30;52.50
43671;DHT22;29267;50.906;7.248;2023-06-14T12:29:31;25.00;52.60
43671;DHT22;29267;50.906;7.248;2023-06-14T12:31:57;24.80;52.50
43671;DHT22;29267;50.906;7.248;2023-06-14T12:34:23;24.70;53.00
43671;DHT22;29267;50.906;7.248;2023-06-14T12:36:55;24.80;53.60
43671;DHT22;29267;50.906;7.248;2023-06-14T12:39:21;25.00;54.10
43671;DHT22;29267;50.906;7.248;2023-06-14T12:41:47;25.10;53.30
43671;DHT22;29267;50.906;7.248;2023-06-14T12:44:14;25.20;54.50
43671;DHT22;29267;50.906;7.248;2023-06-14T12:46:41;24.90;52.10
43671;DHT22;29267;50.906;7.248;2023-06-14T12:49:11;25.00;53.60
43671;DHT22;29267;50.906;7.248;2023-06-14T12:51:38;24.70;51.80
43671;DHT22;29267;50.906;7.248;2023-06-14T12:54:04;24.60;51.90
43671;DHT22;29267;50.906;7.248;2023-06-14T12:56:29;24.50;51.80
43671;DHT22;29267;50.906;7.248;2023-06-14T12:58:55;24.50;53.10
43671;DHT22;29267;50.906;7.248;2023-06-14T13:01:21;24.70;53.50
43671;DHT22;29267;50.906;7.248;2023-06-14T13:03:47;24.50;53.40
43671;DHT22;29267;50.906;7.248;2023-06-14T13:06:13;24.40;53.50
43671;DHT22;29267;50.906;7.248;2023-06-14T13:08:38;24.60;54.20
43671;DHT22;29267;50.906;7.248;2023-06-14T13:11:04;24.50;53.30
43671;DHT22;29267;50.906;7.248;2023-06-14T13:13:30;24.60;54.10
43671;DHT22;29267;50.906;7.248;2023-06-14T13:15:55;24.80;54.50
43671;DHT22;29267;50.906;7.248;2023-06-14T13:18:21;24.60;52.90
43671;DHT22;29267;50.906;7.248;2023-06-14T13:20:47;24.60;53.60
43671;DHT22;29267;50.906;7.248;2023-06-14T13:23:13;24.60;53.70
43671;DHT22;29267;50.906;7.248;2023-06-14T13:25:40;24.70;55.10
43671;DHT22;29267;50.906;7.248;2023-06-14T13:28:06;24.60;54.30
43671;DHT22;29267;50.906;7.248;2023-06-14T13:30:32;24.80;54.50
43671;DHT22;29267;50.906;7.248;2023-06-14T13:32:58;24.80;55.70
43671;DHT22;29267;50.906;7.248;2023-06-14T13:35:24;25.00;54.70
43671;DHT22;29267;50.906;7.248;2023-06-14T13:37:50;24.90;53.50
43671;DHT22;29267;50.906;7.248;2023-06-14T13:40:16;24.70;53.20
43671;DHT22;29267;50.906;7.248;2023-06-14T13:42:42;24.70;54.20
43671;DHT22;29267;50.906;7.248;2023-06-14T13:45:08;24.70;53.00
43671;DHT22;29267;50.906;7.248;2023-06-14T13:47:34;24.60;54.50
43671;DHT22;29267;50.906;7.248;2023-06-14T13:50:00;24.40;54.30
43671;DHT22;29267;50.906;7.248;2023-06-14T13:52:25;24.50;55.10
43671;DHT22;29267;50.906;7.248;2023-06-14T13:54:51;24.50;54.40
43671;DHT22;29267;50.906;7.248;2023-06-14T13:57:18;24.50;55.60
43671;DHT22;29267;50.906;7.248;2023-06-14T13:59:44;24.60;56.00
43671;DHT22;29267;50.906;7.248;2023-06-14T14:02:10;24.60;54.50
43671;DHT22;29267;50.906;7.248;2023-06-14T14:04:36;24.70;54.30
43671;DHT22;29267;50.906;7.248;2023-06-14T14:07:03;24.60;54.20
43671;DHT22;29267;50.906;7.248;2023-06-14T14:09:29;24.50;54.20
43671;DHT22;29267;50.906;7.248;2023-06-14T14:11:54;24.50;55.10
43671;DHT22;29267;50.906;7.248;2023-06-14T14:14:21;24.50;55.40
43671;DHT22;29267;50.906;7.248;2023-06-14T14:16:46;24.50;55.00
43671;DHT22;29267;50.906;7.248;2023-06-14T14:19:12;24.40;54.30
43671;DHT22;29267;50.906;7.248;2023-06-14T14:21:37;24.50;56.60
43671;DHT22;29267;50.906;7.248;2023-06-14T14:24:03;24.60;54.90
43671;DHT22;29267;50.906;7.248;2023-06-14T14:26:29;24.70;54.00
43671;DHT22;29267;50.906;7.248;2023-06-14T14:28:55;24.60;53.40
43671;DHT22;29267;50.906;7.248;2023-06-14T14:31:21;24.60;54.60
43671;DHT22;29267;50.906;7.248;2023-06-14T14:33:46;24.70;55.00
43671;DHT22;29267;50.906;7.248;2023-06-14T14:36:12;24.60;53.70
43671;DHT22;29267;50.906;7.248;2023-06-14T14:38:38;24.60;55.10
43671;DHT22;29267;50.906;7.248;2023-06-14T14:41:04;24.60;54.60
43671;DHT22;29267;50.906;7.248;2023-06-14T14:43:30;24.50;54.60
43671;DHT22;29267;50.906;7.248;2023-06-14T14:45:57;24.30;53.60
43671;DHT22;29267;50.906;7.248;2023-06-14T14:48:23;24.10;55.20
43671;DHT22;29267;50.906;7.248;2023-06-14T14:50:48;24.10;54.80
43671;DHT22;29267;50.906;7.248;2023-06-14T14:53:14;24.10;56.60
43671;DHT22;29267;50.906;7.248;2023-06-14T14:55:42;24.30;56.50
43671;DHT22;29267;50.906;7.248;2023-06-14T14:58:08;24.20;55.60
43671;DHT22;29267;50.906;7.248;2023-06-14T15:00:34;24.30;55.30
43671;DHT22;29267;50.906;7.248;2023-06-14T15:03:00;24.40;55.40
43671;DHT22;29267;50.906;7.248;2023-06-14T15:05:26;24.40;54.10
43671;DHT22;29267;50.906;7.248;2023-06-14T15:07:51;24.40;54.50
43671;DHT22;29267;50.906;7.248;2023-06-14T15:10:17;24.40;53.80
43671;DHT22;29267;50.906;7.248;2023-06-14T15:12:42;24.40;55.40
43671;DHT22;29267;50.906;7.248;2023-06-14T15:15:08;24.40;54.70
43671;DHT22;29267;50.906;7.248;2023-06-14T15:17:35;24.40;54.90
43671;DHT22;29267;50.906;7.248;2023-06-14T15:20:00;24.50;54.80
43671;DHT22;29267;50.906;7.248;2023-06-14T15:22:26;24.60;54.90
43671;DHT22;29267;50.906;7.248;2023-06-14T15:24:51;24.70;55.70
43671;DHT22;29267;50.906;7.248;2023-06-14T15:27:17;24.80;54.70
43671;DHT22;29267;50.906;7.248;2023-06-14T15:29:43;24.80;54.40
43671;DHT22;29267;50.906;7.248;2023-06-14T15:32:09;24.80;55.30
43671;DHT22;29267;50.906;7.248;2023-06-14T15:34:36;24.80;54.40
43671;DHT22;29267;50.906;7.248;2023-06-14T15:37:03;24.50;53.80
43671;DHT22;29267;50.906;7.248;2023-06-14T15:39:29;24.40;54.30
43671;DHT22;29267;50.906;7.248;2023-06-14T15:41:57;24.40;54.20
43671;DHT22;29267;50.906;7.248;2023-06-14T15:44:23;24.20;53.00
43671;DHT22;29267;50.906;7.248;2023-06-14T15:46:48;24.30;53.10